sensor_id;sensor_type;location;lat;lon;timestamp;pressure;altitude;pressure_sealevel;temperature;humidity
54900;BME280;40801;41.924;25.562;2022-10-26T00:00:12;99778.03;;;16.02;54.07
54900;BME280;40801;41.924;25.562;2022-10-26T00:02:37;99777.09;;;15.98;53.99
54900;BME280;40801;41.924;25.562;2022-10-26T00:05:03;99775.53;;;15.97;54.08
54900;BME280;40801;41.924;25.562;2022-10-26T00:07:28;99774.75;;;15.88;54.25
54900;BME280;40801;41.924;25.562;2022-10-26T00:09:53;99768.25;;;15.80;54.63
54900;BME280;40801;41.924;25.562;2022-10-26T00:12:19;99774.41;;;15.68;54.99
54900;BME280;40801;41.924;25.562;2022-10-26T00:14:45;99774.94;;;15.62;55.31
54900;BME280;40801;41.924;25.562;2022-10-26T00:17:10;99770.94;;;15.59;55.29
54900;BME280;40801;41.924;25.562;2022-10-26T00:19:35;99773.34;;;15.52;55.35
54900;BME280;40801;41.924;25.562;2022-10-26T00:22:02;99772.75;;;15.46;53.07
54900;BME280;40801;41.924;25.562;2022-10-26T00:24:27;99769.63;;;15.27;56.64
54900;BME280;40801;41.924;25.562;2022-10-26T00:26:52;99770.25;;;15.33;55.91
54900;BME280;40801;41.924;25.562;2022-10-26T00:29:18;99766.75;;;15.24;56.93
54900;BME280;40801;41.924;25.562;2022-10-26T00:31:43;99763.94;;;15.11;57.42
54900;BME280;40801;41.924;25.562;2022-10-26T00:34:09;99768.25;;;15.12;56.78
54900;BME280;40801;41.924;25.562;2022-10-26T00:36:35;99772.28;;;15.06;56.76
54900;BME280;40801;41.924;25.562;2022-10-26T00:39:00;99777.06;;;15.01;56.91
54900;BME280;40801;41.924;25.562;2022-10-26T00:41:27;99779.47;;;14.94;57.08
54900;BME280;40801;41.924;25.562;2022-10-26T00:43:53;99770.25;;;14.86;57.09
54900;BME280;40801;41.924;25.562;2022-10-26T00:46:20;99774.09;;;14.85;57.05
54900;BME280;40801;41.924;25.562;2022-10-26T00:48:48;99777.13;;;14.83;57.26
54900;BME280;40801;41.924;25.562;2022-10-26T00:53:46;99771.88;;;14.61;58.14
54900;BME280;40801;41.924;25.562;2022-10-26T00:56:12;99769.66;;;14.63;57.78
54900;BME280;40801;41.924;25.562;2022-10-26T00:58:37;99752.84;;;14.70;56.48
54900;BME280;40801;41.924;25.562;2022-10-26T01:01:02;99755.25;;;14.71;57.09
54900;BME280;40801;41.924;25.562;2022-10-26T01:03:28;99749.34;;;14.69;57.45
54900;BME280;40801;41.924;25.562;2022-10-26T01:05:56;99753.84;;;14.65;57.32
54900;BME280;40801;41.924;25.562;2022-10-26T01:08:21;99746.34;;;14.62;57.76
54900;BME280;40801;41.924;25.562;2022-10-26T01:10:47;99754.81;;;14.61;57.64
54900;BME280;40801;41.924;25.562;2022-10-26T01:13:13;99756.56;;;14.56;57.60
54900;BME280;40801;41.924;25.562;2022-10-26T01:18:39;99759.44;;;14.60;57.19
54900;BME280;40801;41.924;25.562;2022-10-26T01:21:13;99762.66;;;14.53;57.55
54900;BME280;40801;41.924;25.562;2022-10-26T01:28:51;99747.63;;;14.13;58.66
54900;BME280;40801;41.924;25.562;2022-10-26T01:31:23;99749.53;;;14.12;58.05
54900;BME280;40801;41.924;25.562;2022-10-26T01:33:56;99751.13;;;14.05;58.60
54900;BME280;40801;41.924;25.562;2022-10-26T01:36:33;99748.44;;;13.96;58.85
54900;BME280;40801;41.924;25.562;2022-10-26T01:39:08;99748.91;;;13.89;58.77
54900;BME280;40801;41.924;25.562;2022-10-26T01:41:35;99750.50;;;13.90;58.75
54900;BME280;40801;41.924;25.562;2022-10-26T01:44:07;99758.16;;;13.97;58.45
54900;BME280;40801;41.924;25.562;2022-10-26T01:46:38;99759.91;;;14.02;58.32
54900;BME280;40801;41.924;25.562;2022-10-26T01:49:06;99757.03;;;14.07;58.16
54900;BME280;40801;41.924;25.562;2022-10-26T01:51:32;99766.13;;;14.11;58.01
54900;BME280;40801;41.924;25.562;2022-10-26T01:53:58;99765.97;;;14.07;58.29
54900;BME280;40801;41.924;25.562;2022-10-26T01:56:24;99770.91;;;14.05;58.48
54900;BME280;40801;41.924;25.562;2022-10-26T02:01:37;99771.41;;;14.07;58.22
54900;BME280;40801;41.924;25.562;2022-10-26T02:09:01;99761.63;;;13.80;58.98
54900;BME280;40801;41.924;25.562;2022-10-26T02:16:28;99752.31;;;13.55;59.61
54900;BME280;40801;41.924;25.562;2022-10-26T02:19:05;99754.72;;;13.48;59.87
54900;BME280;40801;41.924;25.562;2022-10-26T02:21:39;99750.41;;;13.47;59.93
54900;BME280;40801;41.924;25.562;2022-10-26T02:24:05;99755.97;;;13.42;60.13
54900;BME280;40801;41.924;25.562;2022-10-26T02:26:32;99752.94;;;13.44;59.67
54900;BME280;40801;41.924;25.562;2022-10-26T02:28:59;99753.75;;;13.44;59.74
54900;BME280;40801;41.924;25.562;2022-10-26T02:31:26;99759.97;;;13.45;60.02
54900;BME280;40801;41.924;25.562;2022-10-26T02:33:52;99756.75;;;13.43;59.73
54900;BME280;40801;41.924;25.562;2022-10-26T02:36:23;99752.78;;;13.49;59.56
54900;BME280;40801;41.924;25.562;2022-10-26T02:38:49;99751.19;;;13.48;59.96
54900;BME280;40801;41.924;25.562;2022-10-26T02:41:15;99745.47;;;13.49;60.28
54900;BME280;40801;41.924;25.562;2022-10-26T02:43:43;99751.03;;;13.53;59.70
54900;BME280;40801;41.924;25.562;2022-10-26T02:46:10;99753.59;;;13.58;59.46
54900;BME280;40801;41.924;25.562;2022-10-26T02:48:37;99755.84;;;13.56;59.70
54900;BME280;40801;41.924;25.562;2022-10-26T02:51:07;99754.41;;;13.58;59.82
54900;BME280;40801;41.924;25.562;2022-10-26T02:53:34;99755.41;;;13.62;59.54
54900;BME280;40801;41.924;25.562;2022-10-26T02:56:08;99758.91;;;13.63;59.42
54900;BME280;40801;41.924;25.562;2022-10-26T02:58:40;99760.50;;;13.64;59.35
54900;BME280;40801;41.924;25.562;2022-10-26T03:01:08;99764.50;;;13.67;59.18
54900;BME280;40801;41.924;25.562;2022-10-26T03:03:34;99769.91;;;13.67;59.16
54900;BME280;40801;41.924;25.562;2022-10-26T03:05:59;99771.81;;;13.66;59.27
54900;BME280;40801;41.924;25.562;2022-10-26T03:08:24;99772.13;;;13.64;59.41
54900;BME280;40801;41.924;25.562;2022-10-26T03:10:49;99771.34;;;13.64;59.46
54900;BME280;40801;41.924;25.562;2022-10-26T03:13:15;99769.06;;;13.57;59.68
54900;BME280;40801;41.924;25.562;2022-10-26T03:15:40;99781.03;;;13.56;59.66
54900;BME280;40801;41.924;25.562;2022-10-26T03:18:05;99785.78;;;13.51;59.80
54900;BME280;40801;41.924;25.562;2022-10-26T03:20:31;99784.34;;;13.45;60.41
54900;BME280;40801;41.924;25.562;2022-10-26T03:22:56;99790.06;;;13.43;60.54
54900;BME280;40801;41.924;25.562;2022-10-26T03:25:22;99791.81;;;13.39;60.26
54900;BME280;40801;41.924;25.562;2022-10-26T03:27:54;99791.50;;;13.41;59.95
54900;BME280;40801;41.924;25.562;2022-10-26T03:30:20;99789.25;;;13.34;60.10
54900;BME280;40801;41.924;25.562;2022-10-26T03:32:45;99793.88;;;13.33;60.56
54900;BME280;40801;41.924;25.562;2022-10-26T03:35:10;99787.66;;;13.33;60.62
54900;BME280;40801;41.924;25.562;2022-10-26T03:37:36;99793.69;;;13.30;60.66
54900;BME280;40801;41.924;25.562;2022-10-26T03:40:01;99789.50;;;13.24;61.23
54900;BME280;40801;41.924;25.562;2022-10-26T03:42:26;99790.63;;;13.23;61.54
54900;BME280;40801;41.924;25.562;2022-10-26T03:44:51;99797.16;;;13.22;61.25
54900;BME280;40801;41.924;25.562;2022-10-26T03:47:17;99796.03;;;13.23;61.36
54900;BME280;40801;41.924;25.562;2022-10-26T03:49:42;99806.63;;;13.33;60.78
54900;BME280;40801;41.924;25.562;2022-10-26T03:52:07;99807.28;;;13.39;59.21
54900;BME280;40801;41.924;25.562;2022-10-26T03:54:33;99808.56;;;13.41;59.72
54900;BME280;40801;41.924;25.562;2022-10-26T03:56:58;99805.53;;;13.43;60.96
54900;BME280;40801;41.924;25.562;2022-10-26T03:59:23;99808.72;;;13.45;59.16
54900;BME280;40801;41.924;25.562;2022-10-26T04:01:48;99816.25;;;13.56;60.03
54900;BME280;40801;41.924;25.562;2022-10-26T04:04:14;99818.22;;;13.64;60.80
54900;BME280;40801;41.924;25.562;2022-10-26T04:06:39;99824.59;;;13.69;60.15
54900;BME280;40801;41.924;25.562;2022-10-26T04:09:04;99825.06;;;13.71;59.82
54900;BME280;40801;41.924;25.562;2022-10-26T04:11:34;99827.00;;;13.70;60.67
54900;BME280;40801;41.924;25.562;2022-10-26T04:13:59;99836.09;;;13.74;60.12
54900;BME280;40801;41.924;25.562;2022-10-26T04:16:25;99825.56;;;13.81;57.79
54900;BME280;40801;41.924;25.562;2022-10-26T04:18:50;99831.97;;;13.85;60.09
54900;BME280;40801;41.924;25.562;2022-10-26T04:21:15;99834.88;;;13.89;60.85
54900;BME280;40801;41.924;25.562;2022-10-26T04:23:41;99821.78;;;13.91;59.06
54900;BME280;40801;41.924;25.562;2022-10-26T04:26:06;99833.44;;;13.91;60.08
54900;BME280;40801;41.924;25.562;2022-10-26T04:28:31;99837.91;;;13.96;57.81
54900;BME280;40801;41.924;25.562;2022-10-26T04:30:56;99835.69;;;14.07;57.37
54900;BME280;40801;41.924;25.562;2022-10-26T04:33:22;99833.97;;;14.19;57.81
54900;BME280;40801;41.924;25.562;2022-10-26T04:35:47;99834.13;;;14.32;57.98
54900;BME280;40801;41.924;25.562;2022-10-26T04:38:12;99836.22;;;14.43;57.97
54900;BME280;40801;41.924;25.562;2022-10-26T04:40:38;99837.84;;;14.53;58.29
54900;BME280;40801;41.924;25.562;2022-10-26T04:43:03;99837.19;;;14.65;58.11
54900;BME280;40801;41.924;25.562;2022-10-26T04:45:28;99838.13;;;14.69;59.17
54900;BME280;40801;41.924;25.562;2022-10-26T04:47:58;99841.81;;;14.81;57.41
54900;BME280;40801;41.924;25.562;2022-10-26T04:50:24;99848.19;;;14.85;57.41
54900;BME280;40801;41.924;25.562;2022-10-26T04:52:49;99843.38;;;14.91;57.44
54900;BME280;40801;41.924;25.562;2022-10-26T04:55:14;99853.13;;;14.92;58.07
54900;BME280;40801;41.924;25.562;2022-10-26T04:57:42;99860.94;;;15.02;57.33
54900;BME280;40801;41.924;25.562;2022-10-26T05:00:08;99858.22;;;15.02;57.38
54900;BME280;40801;41.924;25.562;2022-10-26T05:02:33;99864.31;;;15.08;57.34
54900;BME280;40801;41.924;25.562;2022-10-26T05:04:58;99861.88;;;15.15;57.12
54900;BME280;40801;41.924;25.562;2022-10-26T05:07:24;99872.56;;;15.20;57.12
54900;BME280;40801;41.924;25.562;2022-10-26T05:09:49;99867.47;;;15.18;56.69
54900;BME280;40801;41.924;25.562;2022-10-26T05:12:14;99872.91;;;15.18;58.13
54900;BME280;40801;41.924;25.562;2022-10-26T05:14:39;99879.63;;;15.12;58.20
54900;BME280;40801;41.924;25.562;2022-10-26T05:17:05;99876.13;;;15.12;58.05
54900;BME280;40801;41.924;25.562;2022-10-26T05:19:30;99880.13;;;15.06;59.05
54900;BME280;40801;41.924;25.562;2022-10-26T05:21:55;99883.16;;;15.04;57.33
54900;BME280;40801;41.924;25.562;2022-10-26T05:24:21;99888.91;;;15.03;59.38
54900;BME280;40801;41.924;25.562;2022-10-26T05:26:46;99894.97;;;15.00;58.93
54900;BME280;40801;41.924;25.562;2022-10-26T05:29:11;99893.84;;;15.01;59.70
54900;BME280;40801;41.924;25.562;2022-10-26T05:31:36;99898.97;;;15.02;59.83
54900;BME280;40801;41.924;25.562;2022-10-26T05:34:02;99900.56;;;15.03;59.53
54900;BME280;40801;41.924;25.562;2022-10-26T05:36:27;99905.50;;;15.01;60.47
54900;BME280;40801;41.924;25.562;2022-10-26T05:38:52;99911.75;;;15.02;60.04
54900;BME280;40801;41.924;25.562;2022-10-26T05:41:17;99913.03;;;15.13;57.93
54900;BME280;40801;41.924;25.562;2022-10-26T05:43:43;99909.66;;;15.16;59.65
54900;BME280;40801;41.924;25.562;2022-10-26T05:46:10;99922.28;;;15.21;58.01
54900;BME280;40801;41.924;25.562;2022-10-26T05:48:36;99912.97;;;15.30;58.37
54900;BME280;40801;41.924;25.562;2022-10-26T05:51:01;99928.97;;;15.32;58.36
54900;BME280;40801;41.924;25.562;2022-10-26T05:53:26;99930.09;;;15.31;59.86
54900;BME280;40801;41.924;25.562;2022-10-26T05:55:53;99939.50;;;15.42;59.63
54900;BME280;40801;41.924;25.562;2022-10-26T05:58:18;99941.88;;;15.52;57.59
54900;BME280;40801;41.924;25.562;2022-10-26T06:00:55;99948.44;;;15.68;57.65
54900;BME280;40801;41.924;25.562;2022-10-26T06:03:29;99940.06;;;15.82;57.80
54900;BME280;40801;41.924;25.562;2022-10-26T06:05:56;99947.84;;;16.01;56.92
54900;BME280;40801;41.924;25.562;2022-10-26T06:08:23;99955.75;;;16.15;56.22
54900;BME280;40801;41.924;25.562;2022-10-26T06:10:49;99958.72;;;16.30;56.62
54900;BME280;40801;41.924;25.562;2022-10-26T06:13:15;99964.88;;;16.48;56.12
54900;BME280;40801;41.924;25.562;2022-10-26T06:23:38;99978.16;;;17.00;55.22
54900;BME280;40801;41.924;25.562;2022-10-26T06:26:14;99974.63;;;17.74;53.96
54900;BME280;40801;41.924;25.562;2022-10-26T06:31:20;99975.31;;;19.49;52.50
54900;BME280;40801;41.924;25.562;2022-10-26T06:33:46;99972.81;;;20.19;50.68
54900;BME280;40801;41.924;25.562;2022-10-26T06:38:39;99989.41;;;21.47;44.91
54900;BME280;40801;41.924;25.562;2022-10-26T06:41:05;99981.09;;;22.09;43.76
54900;BME280;40801;41.924;25.562;2022-10-26T06:43:31;99997.59;;;22.32;42.66
54900;BME280;40801;41.924;25.562;2022-10-26T06:51:13;99988.47;;;23.74;39.82
54900;BME280;40801;41.924;25.562;2022-10-26T06:54:22;99985.28;;;24.13;38.14
54900;BME280;40801;41.924;25.562;2022-10-26T06:56:29;99984.50;;;24.63;37.61
54900;BME280;40801;41.924;25.562;2022-10-26T06:58:55;99972.91;;;25.02;36.83
54900;BME280;40801;41.924;25.562;2022-10-26T07:01:24;99978.13;;;25.21;37.41
54900;BME280;40801;41.924;25.562;2022-10-26T07:03:49;99982.56;;;25.51;38.71
54900;BME280;40801;41.924;25.562;2022-10-26T07:06:14;99988.47;;;25.46;34.77
54900;BME280;40801;41.924;25.562;2022-10-26T07:08:39;99986.09;;;25.48;35.07
54900;BME280;40801;41.924;25.562;2022-10-26T07:11:05;99984.91;;;25.49;36.44
54900;BME280;40801;41.924;25.562;2022-10-26T07:13:30;99992.75;;;25.43;34.84
54900;BME280;40801;41.924;25.562;2022-10-26T07:15:55;99988.47;;;25.49;34.94
54900;BME280;40801;41.924;25.562;2022-10-26T07:18:20;99992.13;;;26.17;34.28
54900;BME280;40801;41.924;25.562;2022-10-26T07:20:46;99988.56;;;26.17;34.85
54900;BME280;40801;41.924;25.562;2022-10-26T07:23:11;99988.13;;;26.82;34.89
54900;BME280;40801;41.924;25.562;2022-10-26T07:25:36;99997.41;;;27.38;33.57
54900;BME280;40801;41.924;25.562;2022-10-26T07:28:07;99990.91;;;27.77;32.03
54900;BME280;40801;41.924;25.562;2022-10-26T07:30:34;99995.53;;;27.94;32.05
54900;BME280;40801;41.924;25.562;2022-10-26T07:33:00;100005.81;;;27.97;31.13
54900;BME280;40801;41.924;25.562;2022-10-26T07:35:26;99994.41;;;27.85;30.51
54900;BME280;40801;41.924;25.562;2022-10-26T07:37:54;99986.75;;;28.03;31.17
54900;BME280;40801;41.924;25.562;2022-10-26T07:40:19;99992.63;;;28.12;30.11
54900;BME280;40801;41.924;25.562;2022-10-26T07:42:45;99984.69;;;28.59;32.31
54900;BME280;40801;41.924;25.562;2022-10-26T07:45:10;99995.13;;;28.85;29.18
54900;BME280;40801;41.924;25.562;2022-10-26T07:47:35;99994.91;;;29.37;29.12
54900;BME280;40801;41.924;25.562;2022-10-26T07:50:00;99994.41;;;29.49;28.18
54900;BME280;40801;41.924;25.562;2022-10-26T07:52:27;99995.06;;;29.57;28.33
54900;BME280;40801;41.924;25.562;2022-10-26T07:54:52;99990.44;;;29.74;27.98
54900;BME280;40801;41.924;25.562;2022-10-26T07:57:17;99998.22;;;29.86;28.28
54900;BME280;40801;41.924;25.562;2022-10-26T07:59:43;99994.97;;;30.18;27.46
54900;BME280;40801;41.924;25.562;2022-10-26T08:02:08;99998.53;;;30.42;26.48
54900;BME280;40801;41.924;25.562;2022-10-26T08:04:34;99998.91;;;30.87;26.45
54900;BME280;40801;41.924;25.562;2022-10-26T08:06:59;99988.97;;;31.06;25.69
54900;BME280;40801;41.924;25.562;2022-10-26T08:09:24;99991.31;;;30.88;26.01
54900;BME280;40801;41.924;25.562;2022-10-26T08:11:49;99989.91;;;30.99;25.68
54900;BME280;40801;41.924;25.562;2022-10-26T08:14:15;99992.09;;;31.48;25.67
54900;BME280;40801;41.924;25.562;2022-10-26T08:16:40;99993.56;;;31.36;25.44
54900;BME280;40801;41.924;25.562;2022-10-26T08:19:06;100002.31;;;31.54;25.36
54900;BME280;40801;41.924;25.562;2022-10-26T08:21:31;99992.97;;;31.44;24.68
54900;BME280;40801;41.924;25.562;2022-10-26T08:23:56;99989.69;;;31.66;25.28
54900;BME280;40801;41.924;25.562;2022-10-26T08:26:21;99992.44;;;32.51;24.21
54900;BME280;40801;41.924;25.562;2022-10-26T08:28:47;99995.59;;;32.20;23.64
54900;BME280;40801;41.924;25.562;2022-10-26T08:31:13;99995.03;;;31.77;24.10
54900;BME280;40801;41.924;25.562;2022-10-26T08:33:38;99988.78;;;32.05;23.70
54900;BME280;40801;41.924;25.562;2022-10-26T08:36:04;99996.47;;;32.17;23.67
54900;BME280;40801;41.924;25.562;2022-10-26T08:38:29;99988.91;;;32.63;23.11
54900;BME280;40801;41.924;25.562;2022-10-26T08:40:55;99995.84;;;32.87;22.72
54900;BME280;40801;41.924;25.562;2022-10-26T08:43:23;99988.00;;;33.11;22.63
54900;BME280;40801;41.924;25.562;2022-10-26T08:46:01;99995.81;;;33.58;21.86
54900;BME280;40801;41.924;25.562;2022-10-26T08:48:31;99991.44;;;33.70;21.17
54900;BME280;40801;41.924;25.562;2022-10-26T08:50:58;99998.94;;;33.98;21.10
54900;BME280;40801;41.924;25.562;2022-10-26T08:53:39;100000.63;;;33.96;21.14
54900;BME280;40801;41.924;25.562;2022-10-26T08:56:12;99997.06;;;34.55;20.83
54900;BME280;40801;41.924;25.562;2022-10-26T08:58:46;99993.88;;;34.18;21.73
54900;BME280;40801;41.924;25.562;2022-10-26T09:01:14;99997.00;;;34.68;21.39
54900;BME280;40801;41.924;25.562;2022-10-26T09:03:39;100004.53;;;34.93;20.25
54900;BME280;40801;41.924;25.562;2022-10-26T09:11:39;99999.94;;;34.99;19.92
54900;BME280;40801;41.924;25.562;2022-10-26T09:14:12;99994.22;;;34.21;21.49
54900;BME280;40801;41.924;25.562;2022-10-26T09:27:01;99984.16;;;35.45;19.43
54900;BME280;40801;41.924;25.562;2022-10-26T09:29:28;99984.03;;;35.49;19.46
54900;BME280;40801;41.924;25.562;2022-10-26T09:31:56;99982.41;;;35.69;19.50
54900;BME280;40801;41.924;25.562;2022-10-26T09:34:57;99980.53;;;35.66;19.47
54900;BME280;40801;41.924;25.562;2022-10-26T09:37:17;99981.22;;;36.56;19.39
54900;BME280;40801;41.924;25.562;2022-10-26T09:39:46;99975.88;;;37.04;17.98
54900;BME280;40801;41.924;25.562;2022-10-26T09:42:21;99983.22;;;37.11;17.60
54900;BME280;40801;41.924;25.562;2022-10-26T09:44:53;99971.50;;;36.94;18.99
54900;BME280;40801;41.924;25.562;2022-10-26T09:47:39;99980.84;;;37.28;17.47
54900;BME280;40801;41.924;25.562;2022-10-26T09:50:23;99975.41;;;36.97;18.83
54900;BME280;40801;41.924;25.562;2022-10-26T09:52:51;99976.81;;;36.65;17.65
54900;BME280;40801;41.924;25.562;2022-10-26T09:55:16;99980.13;;;36.45;18.24
54900;BME280;40801;41.924;25.562;2022-10-26T09:57:43;99974.34;;;36.85;18.02
54900;BME280;40801;41.924;25.562;2022-10-26T10:00:16;99967.75;;;36.42;17.79
54900;BME280;40801;41.924;25.562;2022-10-26T10:02:42;99963.66;;;37.16;18.17
54900;BME280;40801;41.924;25.562;2022-10-26T10:07:45;99963.47;;;37.29;17.23
54900;BME280;40801;41.924;25.562;2022-10-26T10:10:15;99955.59;;;36.73;17.71
54900;BME280;40801;41.924;25.562;2022-10-26T10:12:40;99949.50;;;36.83;17.59
54900;BME280;40801;41.924;25.562;2022-10-26T10:15:15;99957.44;;;36.94;18.27
54900;BME280;40801;41.924;25.562;2022-10-26T10:17:43;99950.56;;;37.04;17.09
54900;BME280;40801;41.924;25.562;2022-10-26T10:20:15;99942.41;;;37.15;16.79
54900;BME280;40801;41.924;25.562;2022-10-26T10:22:57;99948.38;;;37.60;17.93
54900;BME280;40801;41.924;25.562;2022-10-26T10:25:44;99949.09;;;37.27;17.16
54900;BME280;40801;41.924;25.562;2022-10-26T10:28:21;99945.25;;;37.91;16.64
54900;BME280;40801;41.924;25.562;2022-10-26T10:30:51;99941.31;;;38.21;16.66
54900;BME280;40801;41.924;25.562;2022-10-26T10:33:16;99943.88;;;36.92;17.11
54900;BME280;40801;41.924;25.562;2022-10-26T10:35:46;99941.50;;;37.00;17.27
54900;BME280;40801;41.924;25.562;2022-10-26T10:38:16;99935.59;;;35.57;18.20
54900;BME280;40801;41.924;25.562;2022-10-26T10:40:47;99936.41;;;36.53;17.61
54900;BME280;40801;41.924;25.562;2022-10-26T10:43:13;99932.81;;;36.80;16.98
54900;BME280;40801;41.924;25.562;2022-10-26T10:45:39;99931.09;;;36.73;17.06
54900;BME280;40801;41.924;25.562;2022-10-26T10:50:36;99933.47;;;35.80;17.74
54900;BME280;40801;41.924;25.562;2022-10-26T10:53:12;99926.41;;;36.79;16.80
54900;BME280;40801;41.924;25.562;2022-10-26T10:55:38;99922.03;;;36.78;17.10
54900;BME280;40801;41.924;25.562;2022-10-26T10:58:13;99922.72;;;37.15;17.31
54900;BME280;40801;41.924;25.562;2022-10-26T11:00:43;99919.91;;;37.91;16.14
54900;BME280;40801;41.924;25.562;2022-10-26T11:06:07;99911.63;;;37.54;16.73
54900;BME280;40801;41.924;25.562;2022-10-26T11:09:23;99910.63;;;38.14;16.23
54900;BME280;40801;41.924;25.562;2022-10-26T11:11:31;99914.56;;;38.55;15.82
54900;BME280;40801;41.924;25.562;2022-10-26T11:16:37;99904.50;;;39.57;14.63
54900;BME280;40801;41.924;25.562;2022-10-26T11:21:52;99903.69;;;38.63;15.89
54900;BME280;40801;41.924;25.562;2022-10-26T11:31:46;99904.31;;;38.04;16.36
54900;BME280;40801;41.924;25.562;2022-10-26T11:36:48;99903.25;;;38.26;15.59
54900;BME280;40801;41.924;25.562;2022-10-26T11:41:50;99900.00;;;37.94;16.30
54900;BME280;40801;41.924;25.562;2022-10-26T11:44:30;99895.78;;;38.37;15.89
54900;BME280;40801;41.924;25.562;2022-10-26T11:51:58;99892.66;;;38.11;16.44
54900;BME280;40801;41.924;25.562;2022-10-26T11:56:54;99888.56;;;38.75;15.53
54900;BME280;40801;41.924;25.562;2022-10-26T11:59:28;99890.84;;;39.36;15.01
54900;BME280;40801;41.924;25.562;2022-10-26T12:01:59;99883.34;;;39.68;15.26
54900;BME280;40801;41.924;25.562;2022-10-26T12:04:27;99891.19;;;39.43;14.86
54900;BME280;40801;41.924;25.562;2022-10-26T12:06:54;99884.06;;;39.48;15.40
54900;BME280;40801;41.924;25.562;2022-10-26T12:09:22;99886.97;;;39.18;15.12
54900;BME280;40801;41.924;25.562;2022-10-26T12:11:58;99886.47;;;40.10;15.42
54900;BME280;40801;41.924;25.562;2022-10-26T12:14:26;99876.44;;;40.09;15.35
54900;BME280;40801;41.924;25.562;2022-10-26T12:19:31;99876.34;;;37.77;15.58
54900;BME280;40801;41.924;25.562;2022-10-26T12:21:57;99871.91;;;38.62;14.99
54900;BME280;40801;41.924;25.562;2022-10-26T12:24:27;99878.63;;;38.65;15.73
54900;BME280;40801;41.924;25.562;2022-10-26T12:31:49;99875.22;;;38.90;15.58
54900;BME280;40801;41.924;25.562;2022-10-26T12:34:24;99872.56;;;39.16;15.50
54900;BME280;40801;41.924;25.562;2022-10-26T12:39:29;99880.06;;;39.19;14.79
54900;BME280;40801;41.924;25.562;2022-10-26T12:41:56;99876.47;;;39.54;14.37
54900;BME280;40801;41.924;25.562;2022-10-26T12:46:56;99876.75;;;39.56;14.96
54900;BME280;40801;41.924;25.562;2022-10-26T12:52:16;99878.16;;;38.81;14.68
54900;BME280;40801;41.924;25.562;2022-10-26T12:54:44;99883.75;;;38.96;14.71
54900;BME280;40801;41.924;25.562;2022-10-26T12:57:19;99884.25;;;38.94;15.50
54900;BME280;40801;41.924;25.562;2022-10-26T12:59:49;99878.50;;;38.59;15.11
54900;BME280;40801;41.924;25.562;2022-10-26T13:07:33;99888.59;;;38.51;15.08
54900;BME280;40801;41.924;25.562;2022-10-26T13:10:03;99877.44;;;38.86;14.70
54900;BME280;40801;41.924;25.562;2022-10-26T13:13:03;99875.09;;;38.99;15.12
54900;BME280;40801;41.924;25.562;2022-10-26T13:20:23;99871.41;;;38.49;14.25
54900;BME280;40801;41.924;25.562;2022-10-26T13:22:49;99876.66;;;39.00;14.63
54900;BME280;40801;41.924;25.562;2022-10-26T13:25:24;99877.66;;;39.12;14.54
54900;BME280;40801;41.924;25.562;2022-10-26T13:33:07;99880.31;;;38.18;15.52
54900;BME280;40801;41.924;25.562;2022-10-26T13:35:38;99878.56;;;36.98;15.77
54900;BME280;40801;41.924;25.562;2022-10-26T13:38:05;99875.03;;;37.30;16.19
54900;BME280;40801;41.924;25.562;2022-10-26T13:40:33;99879.06;;;37.38;16.18
54900;BME280;40801;41.924;25.562;2022-10-26T13:43:04;99885.56;;;37.44;15.78
54900;BME280;40801;41.924;25.562;2022-10-26T13:45:31;99876.84;;;37.42;15.81
54900;BME280;40801;41.924;25.562;2022-10-26T13:48:05;99874.56;;;37.56;16.34
54900;BME280;40801;41.924;25.562;2022-10-26T13:50:45;99877.13;;;37.44;16.56
54900;BME280;40801;41.924;25.562;2022-10-26T13:55:50;99892.97;;;36.63;17.19
54900;BME280;40801;41.924;25.562;2022-10-26T13:58:39;99894.72;;;35.56;18.07
54900;BME280;40801;41.924;25.562;2022-10-26T14:03:27;99891.88;;;33.47;19.62
54900;BME280;40801;41.924;25.562;2022-10-26T14:05:52;99906.00;;;32.31;20.26
54900;BME280;40801;41.924;25.562;2022-10-26T14:08:18;99903.19;;;31.86;21.89
54900;BME280;40801;41.924;25.562;2022-10-26T14:10:46;99903.31;;;31.30;22.21
54900;BME280;40801;41.924;25.562;2022-10-26T14:13:13;99908.13;;;30.90;23.05
54900;BME280;40801;41.924;25.562;2022-10-26T14:15:42;99901.91;;;30.42;23.77
54900;BME280;40801;41.924;25.562;2022-10-26T14:18:12;99905.38;;;30.03;24.45
54900;BME280;40801;41.924;25.562;2022-10-26T14:20:40;99911.16;;;29.66;24.41
54900;BME280;40801;41.924;25.562;2022-10-26T14:23:24;99915.84;;;29.42;24.15
54900;BME280;40801;41.924;25.562;2022-10-26T14:25:52;99911.25;;;29.01;24.49
54900;BME280;40801;41.924;25.562;2022-10-26T14:28:21;99914.88;;;28.60;24.98
54900;BME280;40801;41.924;25.562;2022-10-26T14:30:46;99916.34;;;28.38;25.97
54900;BME280;40801;41.924;25.562;2022-10-26T14:33:19;99916.81;;;28.29;25.92
54900;BME280;40801;41.924;25.562;2022-10-26T14:35:47;99913.44;;;28.04;26.18
54900;BME280;40801;41.924;25.562;2022-10-26T14:38:20;99925.16;;;27.81;27.21
54900;BME280;40801;41.924;25.562;2022-10-26T14:40:46;99923.66;;;27.66;27.24
54900;BME280;40801;41.924;25.562;2022-10-26T14:43:15;99925.44;;;27.35;27.68
54900;BME280;40801;41.924;25.562;2022-10-26T14:45:45;99929.09;;;27.21;28.00
54900;BME280;40801;41.924;25.562;2022-10-26T14:48:13;99937.03;;;27.08;28.07
54900;BME280;40801;41.924;25.562;2022-10-26T14:50:43;99925.63;;;26.89;28.31
54900;BME280;40801;41.924;25.562;2022-10-26T14:53:20;99925.69;;;26.74;28.89
54900;BME280;40801;41.924;25.562;2022-10-26T14:55:50;99928.91;;;26.55;29.24
54900;BME280;40801;41.924;25.562;2022-10-26T14:58:17;99932.13;;;26.36;29.60
54900;BME280;40801;41.924;25.562;2022-10-26T15:00:44;99931.31;;;26.17;29.78